sensor_id;sensor_type;location;lat;lon;timestamp;P1;durP1;ratioP1;P2;durP2;ratioP2
57317;SDS011;43157;50.982;18.132;2023-05-29T00:01:16;11.00;;;2.50;;
57317;SDS011;43157;50.982;18.132;2023-05-29T00:03:46;11.00;;;2.60;;
57317;SDS011;43157;50.982;18.132;2023-05-29T00:06:13;8.40;;;2.50;;
57317;SDS011;43157;50.982;18.132;2023-05-29T00:08:39;15.00;;;3.10;;
57317;SDS011;43157;50.982;18.132;2023-05-29T00:11:05;14.70;;;3.90;;
57317;SDS011;43157;50.982;18.132;2023-05-29T00:13:31;16.90;;;3.80;;
57317;SDS011;43157;50.982;18.132;2023-05-29T00:15:57;14.10;;;3.30;;
57317;SDS011;43157;50.982;18.132;2023-05-29T00:18:24;12.20;;;3.20;;
57317;SDS011;43157;50.982;18.132;2023-05-29T00:20:51;12.00;;;3.50;;
57317;SDS011;43157;50.982;18.132;2023-05-29T00:23:18;15.40;;;3.20;;
57317;SDS011;43157;50.982;18.132;2023-05-29T00:25:44;12.60;;;3.20;;
57317;SDS011;43157;50.982;18.132;2023-05-29T00:28:10;12.00;;;3.40;;
57317;SDS011;43157;50.982;18.132;2023-05-29T00:30:38;14.50;;;3.50;;
57317;SDS011;43157;50.982;18.132;2023-05-29T00:33:05;13.40;;;3.60;;
57317;SDS011;43157;50.982;18.132;2023-05-29T00:35:31;14.90;;;2.80;;
57317;SDS011;43157;50.982;18.132;2023-05-29T00:37:57;10.40;;;2.50;;
57317;SDS011;43157;50.982;18.132;2023-05-29T00:40:24;9.30;;;2.80;;
57317;SDS011;43157;50.982;18.132;2023-05-29T00:42:50;8.90;;;2.70;;
57317;SDS011;43157;50.982;18.132;2023-05-29T00:45:17;11.50;;;3.00;;
57317;SDS011;43157;50.982;18.132;2023-05-29T00:47:43;8.20;;;2.50;;
57317;SDS011;43157;50.982;18.132;2023-05-29T00:50:10;9.70;;;2.40;;
57317;SDS011;43157;50.982;18.132;2023-05-29T00:52:39;12.20;;;2.60;;
57317;SDS011;43157;50.982;18.132;2023-05-29T00:55:06;10.30;;;3.10;;
57317;SDS011;43157;50.982;18.132;2023-05-29T00:57:33;10.40;;;2.50;;
57317;SDS011;43157;50.982;18.132;2023-05-29T00:59:59;9.20;;;2.60;;
57317;SDS011;43157;50.982;18.132;2023-05-29T01:02:26;11.90;;;2.70;;
57317;SDS011;43157;50.982;18.132;2023-05-29T01:04:54;8.20;;;2.40;;
57317;SDS011;43157;50.982;18.132;2023-05-29T01:07:21;12.90;;;2.80;;
57317;SDS011;43157;50.982;18.132;2023-05-29T01:09:47;14.70;;;2.50;;
57317;SDS011;43157;50.982;18.132;2023-05-29T01:12:19;11.10;;;2.60;;
57317;SDS011;43157;50.982;18.132;2023-05-29T01:15:01;11.00;;;2.80;;
57317;SDS011;43157;50.982;18.132;2023-05-29T01:20:31;13.60;;;2.70;;
57317;SDS011;43157;50.982;18.132;2023-05-29T01:23:07;9.60;;;2.70;;
57317;SDS011;43157;50.982;18.132;2023-05-29T01:28:54;10.20;;;2.20;;
57317;SDS011;43157;50.982;18.132;2023-05-29T01:31:23;10.60;;;2.70;;
57317;SDS011;43157;50.982;18.132;2023-05-29T01:33:51;10.40;;;2.70;;
57317;SDS011;43157;50.982;18.132;2023-05-29T01:36:19;8.00;;;2.20;;
57317;SDS011;43157;50.982;18.132;2023-05-29T01:38:45;9.70;;;2.60;;
57317;SDS011;43157;50.982;18.132;2023-05-29T01:41:12;9.70;;;2.70;;
57317;SDS011;43157;50.982;18.132;2023-05-29T01:43:38;14.00;;;2.70;;
57317;SDS011;43157;50.982;18.132;2023-05-29T01:46:04;10.90;;;3.10;;
57317;SDS011;43157;50.982;18.132;2023-05-29T01:48:30;7.70;;;2.30;;
57317;SDS011;43157;50.982;18.132;2023-05-29T01:50:56;8.90;;;2.60;;
57317;SDS011;43157;50.982;18.132;2023-05-29T01:53:23;11.90;;;3.00;;
57317;SDS011;43157;50.982;18.132;2023-05-29T01:55:50;10.20;;;2.40;;
57317;SDS011;43157;50.982;18.132;2023-05-29T01:58:16;11.30;;;2.50;;
57317;SDS011;43157;50.982;18.132;2023-05-29T02:00:43;11.20;;;3.10;;
57317;SDS011;43157;50.982;18.132;2023-05-29T02:03:09;13.40;;;3.10;;
57317;SDS011;43157;50.982;18.132;2023-05-29T02:05:36;11.80;;;3.10;;
57317;SDS011;43157;50.982;18.132;2023-05-29T02:08:01;11.70;;;3.50;;
57317;SDS011;43157;50.982;18.132;2023-05-29T02:10:27;9.90;;;3.10;;
57317;SDS011;43157;50.982;18.132;2023-05-29T02:12:53;11.10;;;2.90;;
57317;SDS011;43157;50.982;18.132;2023-05-29T02:15:22;17.00;;;3.60;;
57317;SDS011;43157;50.982;18.132;2023-05-29T02:17:48;11.20;;;3.20;;
57317;SDS011;43157;50.982;18.132;2023-05-29T02:20:15;10.50;;;3.00;;
57317;SDS011;43157;50.982;18.132;2023-05-29T02:22:41;9.60;;;3.00;;
57317;SDS011;43157;50.982;18.132;2023-05-29T02:25:07;13.80;;;3.70;;
57317;SDS011;43157;50.982;18.132;2023-05-29T02:27:33;10.40;;;2.90;;
57317;SDS011;43157;50.982;18.132;2023-05-29T02:29:59;14.70;;;3.50;;
57317;SDS011;43157;50.982;18.132;2023-05-29T02:32:25;9.90;;;2.90;;
57317;SDS011;43157;50.982;18.132;2023-05-29T02:34:53;10.50;;;3.10;;
57317;SDS011;43157;50.982;18.132;2023-05-29T02:37:20;13.70;;;3.30;;
57317;SDS011;43157;50.982;18.132;2023-05-29T02:39:46;12.20;;;3.50;;
57317;SDS011;43157;50.982;18.132;2023-05-29T02:42:12;12.30;;;2.90;;
57317;SDS011;43157;50.982;18.132;2023-05-29T02:44:38;10.40;;;2.90;;
57317;SDS011;43157;50.982;18.132;2023-05-29T02:47:04;10.40;;;3.20;;
57317;SDS011;43157;50.982;18.132;2023-05-29T02:49:30;12.50;;;3.30;;
57317;SDS011;43157;50.982;18.132;2023-05-29T02:51:56;13.80;;;3.00;;
57317;SDS011;43157;50.982;18.132;2023-05-29T02:54:23;13.00;;;3.70;;
57317;SDS011;43157;50.982;18.132;2023-05-29T02:56:51;13.00;;;3.00;;
57317;SDS011;43157;50.982;18.132;2023-05-29T02:59:17;13.20;;;3.60;;
57317;SDS011;43157;50.982;18.132;2023-05-29T03:01:43;13.40;;;3.30;;
57317;SDS011;43157;50.982;18.132;2023-05-29T03:04:09;10.40;;;3.10;;
57317;SDS011;43157;50.982;18.132;2023-05-29T03:06:36;11.40;;;3.50;;
57317;SDS011;43157;50.982;18.132;2023-05-29T03:09:05;11.80;;;3.60;;
57317;SDS011;43157;50.982;18.132;2023-05-29T03:11:31;10.40;;;2.90;;
57317;SDS011;43157;50.982;18.132;2023-05-29T03:13:58;11.60;;;3.10;;
57317;SDS011;43157;50.982;18.132;2023-05-29T03:16:24;10.70;;;3.20;;
57317;SDS011;43157;50.982;18.132;2023-05-29T03:18:51;11.00;;;3.20;;
57317;SDS011;43157;50.982;18.132;2023-05-29T03:21:17;11.30;;;3.70;;
57317;SDS011;43157;50.982;18.132;2023-05-29T03:23:43;11.30;;;3.60;;
57317;SDS011;43157;50.982;18.132;2023-05-29T03:26:09;13.30;;;3.70;;
57317;SDS011;43157;50.982;18.132;2023-05-29T03:28:36;13.70;;;4.70;;
57317;SDS011;43157;50.982;18.132;2023-05-29T03:31:01;13.70;;;4.30;;
57317;SDS011;43157;50.982;18.132;2023-05-29T03:33:27;10.30;;;3.40;;
57317;SDS011;43157;50.982;18.132;2023-05-29T03:35:53;11.70;;;3.70;;
57317;SDS011;43157;50.982;18.132;2023-05-29T03:38:19;17.20;;;3.80;;
57317;SDS011;43157;50.982;18.132;2023-05-29T03:40:45;15.30;;;3.70;;
57317;SDS011;43157;50.982;18.132;2023-05-29T03:43:11;13.20;;;3.20;;
57317;SDS011;43157;50.982;18.132;2023-05-29T03:45:37;13.20;;;3.50;;
57317;SDS011;43157;50.982;18.132;2023-05-29T03:48:04;15.10;;;3.40;;
57317;SDS011;43157;50.982;18.132;2023-05-29T03:50:30;11.70;;;3.00;;
57317;SDS011;43157;50.982;18.132;2023-05-29T03:52:56;13.90;;;3.20;;
57317;SDS011;43157;50.982;18.132;2023-05-29T03:55:22;12.90;;;3.10;;
57317;SDS011;43157;50.982;18.132;2023-05-29T03:57:48;12.40;;;3.60;;
57317;SDS011;43157;50.982;18.132;2023-05-29T04:14:06;10.50;;;3.40;;
57317;SDS011;43157;50.982;18.132;2023-05-29T04:16:33;13.00;;;3.40;;
57317;SDS011;43157;50.982;18.132;2023-05-29T04:18:58;12.90;;;3.50;;
57317;SDS011;43157;50.982;18.132;2023-05-29T04:21:24;12.80;;;4.30;;
57317;SDS011;43157;50.982;18.132;2023-05-29T04:23:51;14.60;;;3.30;;
57317;SDS011;43157;50.982;18.132;2023-05-29T04:26:17;13.30;;;3.10;;
57317;SDS011;43157;50.982;18.132;2023-05-29T04:28:46;11.00;;;3.20;;
57317;SDS011;43157;50.982;18.132;2023-05-29T04:31:12;11.60;;;3.10;;
57317;SDS011;43157;50.982;18.132;2023-05-29T04:33:39;9.40;;;3.30;;
57317;SDS011;43157;50.982;18.132;2023-05-29T04:36:06;10.10;;;3.40;;
57317;SDS011;43157;50.982;18.132;2023-05-29T04:38:33;14.90;;;3.20;;
57317;SDS011;43157;50.982;18.132;2023-05-29T04:41:02;11.40;;;3.60;;
57317;SDS011;43157;50.982;18.132;2023-05-29T04:43:28;14.20;;;4.10;;
57317;SDS011;43157;50.982;18.132;2023-05-29T04:45:54;13.10;;;3.60;;
57317;SDS011;43157;50.982;18.132;2023-05-29T04:48:20;11.70;;;3.40;;
57317;SDS011;43157;50.982;18.132;2023-05-29T04:50:46;10.00;;;3.30;;
57317;SDS011;43157;50.982;18.132;2023-05-29T04:53:14;9.60;;;3.20;;
57317;SDS011;43157;50.982;18.132;2023-05-29T04:55:40;8.90;;;3.20;;
57317;SDS011;43157;50.982;18.132;2023-05-29T04:58:06;11.20;;;2.90;;
57317;SDS011;43157;50.982;18.132;2023-05-29T05:00:32;11.90;;;3.20;;
57317;SDS011;43157;50.982;18.132;2023-05-29T05:02:58;11.20;;;3.00;;
57317;SDS011;43157;50.982;18.132;2023-05-29T05:05:25;10.40;;;3.40;;
57317;SDS011;43157;50.982;18.132;2023-05-29T05:07:51;11.50;;;2.60;;
57317;SDS011;43157;50.982;18.132;2023-05-29T05:10:17;14.00;;;4.00;;
57317;SDS011;43157;50.982;18.132;2023-05-29T05:12:43;14.60;;;3.40;;
57317;SDS011;43157;50.982;18.132;2023-05-29T05:15:09;12.40;;;3.10;;
57317;SDS011;43157;50.982;18.132;2023-05-29T05:17:36;9.90;;;2.90;;
57317;SDS011;43157;50.982;18.132;2023-05-29T05:20:02;11.30;;;3.60;;
57317;SDS011;43157;50.982;18.132;2023-05-29T05:22:31;12.90;;;3.20;;
57317;SDS011;43157;50.982;18.132;2023-05-29T05:24:57;13.00;;;3.20;;
57317;SDS011;43157;50.982;18.132;2023-05-29T05:27:24;13.00;;;2.90;;
57317;SDS011;43157;50.982;18.132;2023-05-29T05:29:51;10.80;;;3.00;;
57317;SDS011;43157;50.982;18.132;2023-05-29T05:32:17;11.50;;;3.30;;
57317;SDS011;43157;50.982;18.132;2023-05-29T05:34:46;9.00;;;2.60;;
57317;SDS011;43157;50.982;18.132;2023-05-29T05:37:12;10.80;;;3.40;;
57317;SDS011;43157;50.982;18.132;2023-05-29T05:39:38;10.60;;;3.20;;
57317;SDS011;43157;50.982;18.132;2023-05-29T05:42:04;9.20;;;2.80;;
57317;SDS011;43157;50.982;18.132;2023-05-29T05:44:30;9.30;;;3.10;;
57317;SDS011;43157;50.982;18.132;2023-05-29T05:46:57;11.20;;;2.50;;
57317;SDS011;43157;50.982;18.132;2023-05-29T05:49:23;11.70;;;3.40;;
57317;SDS011;43157;50.982;18.132;2023-05-29T05:51:49;14.70;;;3.60;;
57317;SDS011;43157;50.982;18.132;2023-05-29T05:54:15;12.10;;;3.10;;
57317;SDS011;43157;50.982;18.132;2023-05-29T05:56:42;11.70;;;3.00;;
57317;SDS011;43157;50.982;18.132;2023-05-29T05:59:08;10.00;;;2.80;;
57317;SDS011;43157;50.982;18.132;2023-05-29T06:01:34;10.60;;;2.90;;
57317;SDS011;43157;50.982;18.132;2023-05-29T06:04:01;10.00;;;3.40;;
57317;SDS011;43157;50.982;18.132;2023-05-29T06:06:28;15.60;;;3.10;;
57317;SDS011;43157;50.982;18.132;2023-05-29T06:08:54;11.70;;;3.60;;
57317;SDS011;43157;50.982;18.132;2023-05-29T06:11:22;14.50;;;3.70;;
57317;SDS011;43157;50.982;18.132;2023-05-29T06:13:48;14.80;;;3.80;;
57317;SDS011;43157;50.982;18.132;2023-05-29T06:16:15;11.10;;;3.30;;
57317;SDS011;43157;50.982;18.132;2023-05-29T06:18:41;15.40;;;3.60;;
57317;SDS011;43157;50.982;18.132;2023-05-29T06:21:07;15.20;;;3.60;;
57317;SDS011;43157;50.982;18.132;2023-05-29T06:23:34;10.60;;;3.30;;
57317;SDS011;43157;50.982;18.132;2023-05-29T06:26:02;18.10;;;3.20;;
57317;SDS011;43157;50.982;18.132;2023-05-29T06:28:29;17.70;;;3.60;;
57317;SDS011;43157;50.982;18.132;2023-05-29T06:30:55;16.70;;;3.60;;
57317;SDS011;43157;50.982;18.132;2023-05-29T06:33:21;24.30;;;4.30;;
57317;SDS011;43157;50.982;18.132;2023-05-29T06:35:48;23.20;;;4.40;;
57317;SDS011;43157;50.982;18.132;2023-05-29T06:38:14;24.70;;;4.50;;
57317;SDS011;43157;50.982;18.132;2023-05-29T06:40:40;25.60;;;4.30;;
57317;SDS011;43157;50.982;18.132;2023-05-29T06:43:07;18.10;;;3.10;;
57317;SDS011;43157;50.982;18.132;2023-05-29T06:45:35;17.20;;;3.20;;
57317;SDS011;43157;50.982;18.132;2023-05-29T06:48:01;12.40;;;2.50;;
57317;SDS011;43157;50.982;18.132;2023-05-29T06:50:27;13.70;;;2.90;;
57317;SDS011;43157;50.982;18.132;2023-05-29T06:52:53;16.90;;;3.50;;
57317;SDS011;43157;50.982;18.132;2023-05-29T06:55:19;20.50;;;3.30;;
57317;SDS011;43157;50.982;18.132;2023-05-29T06:57:46;16.30;;;3.20;;
57317;SDS011;43157;50.982;18.132;2023-05-29T07:00:12;12.70;;;3.30;;
57317;SDS011;43157;50.982;18.132;2023-05-29T07:02:39;11.80;;;2.60;;
57317;SDS011;43157;50.982;18.132;2023-05-29T07:05:05;9.30;;;2.50;;
57317;SDS011;43157;50.982;18.132;2023-05-29T07:07:31;9.80;;;2.20;;
57317;SDS011;43157;50.982;18.132;2023-05-29T07:09:57;10.90;;;2.20;;
57317;SDS011;43157;50.982;18.132;2023-05-29T07:12:23;10.30;;;2.50;;
57317;SDS011;43157;50.982;18.132;2023-05-29T07:14:50;8.60;;;2.10;;
57317;SDS011;43157;50.982;18.132;2023-05-29T07:17:16;10.00;;;2.70;;
57317;SDS011;43157;50.982;18.132;2023-05-29T07:19:42;8.20;;;2.10;;
57317;SDS011;43157;50.982;18.132;2023-05-29T07:22:08;8.10;;;2.00;;
57317;SDS011;43157;50.982;18.132;2023-05-29T07:24:34;8.60;;;2.20;;
57317;SDS011;43157;50.982;18.132;2023-05-29T07:27:01;10.10;;;2.20;;
57317;SDS011;43157;50.982;18.132;2023-05-29T07:29:27;7.10;;;1.90;;
57317;SDS011;43157;50.982;18.132;2023-05-29T07:31:53;8.30;;;1.70;;
57317;SDS011;43157;50.982;18.132;2023-05-29T07:34:20;9.60;;;2.20;;
57317;SDS011;43157;50.982;18.132;2023-05-29T07:37:00;10.10;;;2.00;;
57317;SDS011;43157;50.982;18.132;2023-05-29T07:39:26;8.50;;;1.60;;
57317;SDS011;43157;50.982;18.132;2023-05-29T07:41:52;9.20;;;1.50;;
57317;SDS011;43157;50.982;18.132;2023-05-29T07:44:18;5.20;;;1.70;;
57317;SDS011;43157;50.982;18.132;2023-05-29T07:46:45;7.80;;;1.50;;
57317;SDS011;43157;50.982;18.132;2023-05-29T07:49:11;10.20;;;2.20;;
57317;SDS011;43157;50.982;18.132;2023-05-29T07:51:37;6.70;;;1.80;;
57317;SDS011;43157;50.982;18.132;2023-05-29T07:54:03;6.60;;;1.80;;
57317;SDS011;43157;50.982;18.132;2023-05-29T07:56:30;10.70;;;1.80;;
57317;SDS011;43157;50.982;18.132;2023-05-29T07:58:59;6.20;;;1.60;;
57317;SDS011;43157;50.982;18.132;2023-05-29T08:01:26;7.20;;;1.80;;
57317;SDS011;43157;50.982;18.132;2023-05-29T08:03:52;8.60;;;1.80;;
57317;SDS011;43157;50.982;18.132;2023-05-29T08:06:19;6.10;;;1.60;;
57317;SDS011;43157;50.982;18.132;2023-05-29T08:08:45;7.40;;;1.70;;
57317;SDS011;43157;50.982;18.132;2023-05-29T08:11:11;6.20;;;1.40;;
57317;SDS011;43157;50.982;18.132;2023-05-29T08:13:37;9.70;;;2.20;;
57317;SDS011;43157;50.982;18.132;2023-05-29T08:16:04;9.60;;;1.90;;
57317;SDS011;43157;50.982;18.132;2023-05-29T08:18:31;9.30;;;1.80;;
57317;SDS011;43157;50.982;18.132;2023-05-29T08:21:00;7.40;;;1.60;;
57317;SDS011;43157;50.982;18.132;2023-05-29T08:23:27;6.40;;;1.50;;
57317;SDS011;43157;50.982;18.132;2023-05-29T08:25:53;8.50;;;1.50;;
57317;SDS011;43157;50.982;18.132;2023-05-29T08:28:19;7.90;;;1.80;;
57317;SDS011;43157;50.982;18.132;2023-05-29T08:30:46;12.20;;;1.80;;
57317;SDS011;43157;50.982;18.132;2023-05-29T08:33:13;8.00;;;1.70;;
57317;SDS011;43157;50.982;18.132;2023-05-29T08:35:39;8.30;;;1.30;;
57317;SDS011;43157;50.982;18.132;2023-05-29T08:38:05;6.60;;;1.50;;
57317;SDS011;43157;50.982;18.132;2023-05-29T08:40:31;10.60;;;1.60;;
57317;SDS011;43157;50.982;18.132;2023-05-29T08:42:59;8.90;;;1.80;;
57317;SDS011;43157;50.982;18.132;2023-05-29T08:45:32;7.30;;;1.50;;
57317;SDS011;43157;50.982;18.132;2023-05-29T08:47:59;8.60;;;1.40;;
57317;SDS011;43157;50.982;18.132;2023-05-29T08:50:26;7.20;;;1.40;;
57317;SDS011;43157;50.982;18.132;2023-05-29T08:52:52;8.60;;;1.60;;
57317;SDS011;43157;50.982;18.132;2023-05-29T08:55:18;5.00;;;1.20;;
57317;SDS011;43157;50.982;18.132;2023-05-29T08:57:44;7.20;;;1.40;;
57317;SDS011;43157;50.982;18.132;2023-05-29T09:00:11;8.60;;;1.40;;
57317;SDS011;43157;50.982;18.132;2023-05-29T09:02:41;6.90;;;1.30;;
57317;SDS011;43157;50.982;18.132;2023-05-29T09:05:11;6.60;;;1.40;;
57317;SDS011;43157;50.982;18.132;2023-05-29T09:07:38;9.70;;;1.30;;
57317;SDS011;43157;50.982;18.132;2023-05-29T09:10:05;6.00;;;1.30;;
57317;SDS011;43157;50.982;18.132;2023-05-29T09:12:32;8.50;;;1.60;;
57317;SDS011;43157;50.982;18.132;2023-05-29T09:14:59;7.80;;;1.50;;
57317;SDS011;43157;50.982;18.132;2023-05-29T09:17:29;8.20;;;1.50;;
57317;SDS011;43157;50.982;18.132;2023-05-29T09:19:56;8.60;;;1.70;;
57317;SDS011;43157;50.982;18.132;2023-05-29T09:22:22;7.70;;;1.80;;
57317;SDS011;43157;50.982;18.132;2023-05-29T09:24:48;8.00;;;1.50;;
57317;SDS011;43157;50.982;18.132;2023-05-29T09:27:16;8.30;;;1.30;;
57317;SDS011;43157;50.982;18.132;2023-05-29T09:29:43;5.70;;;1.30;;
57317;SDS011;43157;50.982;18.132;2023-05-29T09:32:12;7.70;;;1.50;;
57317;SDS011;43157;50.982;18.132;2023-05-29T09:34:41;6.90;;;1.20;;
57317;SDS011;43157;50.982;18.132;2023-05-29T09:37:08;8.20;;;1.40;;
57317;SDS011;43157;50.982;18.132;2023-05-29T09:42:09;5.10;;;1.40;;
57317;SDS011;43157;50.982;18.132;2023-05-29T09:44:35;7.70;;;1.30;;
57317;SDS011;43157;50.982;18.132;2023-05-29T09:47:01;6.50;;;1.30;;
57317;SDS011;43157;50.982;18.132;2023-05-29T09:49:27;8.30;;;1.70;;
57317;SDS011;43157;50.982;18.132;2023-05-29T09:51:54;6.70;;;1.60;;
57317;SDS011;43157;50.982;18.132;2023-05-29T09:54:20;5.80;;;1.40;;
57317;SDS011;43157;50.982;18.132;2023-05-29T09:56:46;4.70;;;1.30;;
57317;SDS011;43157;50.982;18.132;2023-05-29T09:59:13;10.20;;;1.50;;
57317;SDS011;43157;50.982;18.132;2023-05-29T10:01:41;6.70;;;1.60;;
57317;SDS011;43157;50.982;18.132;2023-05-29T10:04:10;5.80;;;1.30;;
57317;SDS011;43157;50.982;18.132;2023-05-29T10:06:45;6.40;;;1.30;;
57317;SDS011;43157;50.982;18.132;2023-05-29T10:09:12;7.60;;;1.40;;
57317;SDS011;43157;50.982;18.132;2023-05-29T10:11:41;6.20;;;1.30;;
57317;SDS011;43157;50.982;18.132;2023-05-29T10:14:09;7.00;;;1.60;;
57317;SDS011;43157;50.982;18.132;2023-05-29T10:16:39;7.20;;;1.80;;
57317;SDS011;43157;50.982;18.132;2023-05-29T10:19:09;4.90;;;1.20;;
57317;SDS011;43157;50.982;18.132;2023-05-29T10:21:41;7.90;;;1.20;;
57317;SDS011;43157;50.982;18.132;2023-05-29T10:24:09;7.70;;;1.60;;
57317;SDS011;43157;50.982;18.132;2023-05-29T10:26:38;6.50;;;1.30;;
57317;SDS011;43157;50.982;18.132;2023-05-29T10:32:01;6.00;;;1.30;;
57317;SDS011;43157;50.982;18.132;2023-05-29T10:40:04;9.00;;;1.40;;
57317;SDS011;43157;50.982;18.132;2023-05-29T10:42:42;6.60;;;1.30;;
57317;SDS011;43157;50.982;18.132;2023-05-29T10:45:47;7.90;;;1.20;;
57317;SDS011;43157;50.982;18.132;2023-05-29T10:50:49;5.20;;;1.30;;
57317;SDS011;43157;50.982;18.132;2023-05-29T10:53:17;8.00;;;1.50;;
57317;SDS011;43157;50.982;18.132;2023-05-29T10:55:48;9.20;;;1.40;;
57317;SDS011;43157;50.982;18.132;2023-05-29T10:58:24;5.50;;;1.30;;
57317;SDS011;43157;50.982;18.132;2023-05-29T11:00:51;10.30;;;1.50;;
57317;SDS011;43157;50.982;18.132;2023-05-29T11:03:23;6.60;;;1.30;;
57317;SDS011;43157;50.982;18.132;2023-05-29T11:06:00;3.80;;;1.20;;
57317;SDS011;43157;50.982;18.132;2023-05-29T11:08:46;6.80;;;1.60;;
57317;SDS011;43157;50.982;18.132;2023-05-29T11:11:32;6.80;;;0.90;;
57317;SDS011;43157;50.982;18.132;2023-05-29T11:14:02;7.30;;;1.00;;
57317;SDS011;43157;50.982;18.132;2023-05-29T11:18:56;5.50;;;1.30;;
57317;SDS011;43157;50.982;18.132;2023-05-29T11:24:03;6.60;;;1.40;;
57317;SDS011;43157;50.982;18.132;2023-05-29T11:26:30;8.10;;;1.30;;
57317;SDS011;43157;50.982;18.132;2023-05-29T11:28:57;9.60;;;1.50;;
57317;SDS011;43157;50.982;18.132;2023-05-29T11:31:23;6.40;;;1.20;;
57317;SDS011;43157;50.982;18.132;2023-05-29T11:33:50;6.40;;;1.20;;
57317;SDS011;43157;50.982;18.132;2023-05-29T11:36:21;7.00;;;1.60;;
57317;SDS011;43157;50.982;18.132;2023-05-29T11:38:47;6.00;;;1.20;;
57317;SDS011;43157;50.982;18.132;2023-05-29T11:41:13;8.70;;;1.40;;
57317;SDS011;43157;50.982;18.132;2023-05-29T11:43:39;7.40;;;1.40;;
57317;SDS011;43157;50.982;18.132;2023-05-29T11:46:18;9.70;;;1.30;;
57317;SDS011;43157;50.982;18.132;2023-05-29T11:48:45;7.80;;;1.20;;
57317;SDS011;43157;50.982;18.132;2023-05-29T11:51:12;5.90;;;1.40;;
57317;SDS011;43157;50.982;18.132;2023-05-29T11:53:43;6.90;;;1.30;;
57317;SDS011;43157;50.982;18.132;2023-05-29T11:56:09;6.00;;;1.50;;
57317;SDS011;43157;50.982;18.132;2023-05-29T11:58:36;7.70;;;1.40;;
57317;SDS011;43157;50.982;18.132;2023-05-29T12:01:04;5.80;;;1.00;;
57317;SDS011;43157;50.982;18.132;2023-05-29T12:03:30;7.70;;;1.20;;
57317;SDS011;43157;50.982;18.132;2023-05-29T12:05:56;7.00;;;1.60;;
57317;SDS011;43157;50.982;18.132;2023-05-29T12:08:22;4.80;;;1.00;;
57317;SDS011;43157;50.982;18.132;2023-05-29T12:10:50;8.30;;;1.40;;
57317;SDS011;43157;50.982;18.132;2023-05-29T12:13:20;5.80;;;1.30;;
57317;SDS011;43157;50.982;18.132;2023-05-29T12:15:47;5.00;;;1.10;;
57317;SDS011;43157;50.982;18.132;2023-05-29T12:18:14;6.50;;;1.30;;
57317;SDS011;43157;50.982;18.132;2023-05-29T12:20:41;5.50;;;1.20;;
57317;SDS011;43157;50.982;18.132;2023-05-29T12:23:07;7.20;;;1.40;;
57317;SDS011;43157;50.982;18.132;2023-05-29T12:25:36;5.50;;;1.30;;
57317;SDS011;43157;50.982;18.132;2023-05-29T12:28:02;4.70;;;1.20;;
57317;SDS011;43157;50.982;18.132;2023-05-29T12:30:28;6.70;;;1.40;;
57317;SDS011;43157;50.982;18.132;2023-05-29T12:32:54;6.10;;;1.30;;
57317;SDS011;43157;50.982;18.132;2023-05-29T12:35:22;7.00;;;1.30;;
57317;SDS011;43157;50.982;18.132;2023-05-29T12:38:00;8.80;;;1.60;;
57317;SDS011;43157;50.982;18.132;2023-05-29T12:40:28;6.60;;;1.10;;
57317;SDS011;43157;50.982;18.132;2023-05-29T12:42:58;8.50;;;1.70;;
57317;SDS011;43157;50.982;18.132;2023-05-29T12:45:25;6.60;;;1.50;;
57317;SDS011;43157;50.982;18.132;2023-05-29T12:47:55;7.20;;;1.70;;
57317;SDS011;43157;50.982;18.132;2023-05-29T12:50:26;8.00;;;1.50;;
57317;SDS011;43157;50.982;18.132;2023-05-29T12:52:54;5.60;;;1.30;;
57317;SDS011;43157;50.982;18.132;2023-05-29T12:55:23;5.90;;;1.30;;
57317;SDS011;43157;50.982;18.132;2023-05-29T12:57:49;6.10;;;1.20;;
57317;SDS011;43157;50.982;18.132;2023-05-29T13:00:15;5.70;;;1.40;;
57317;SDS011;43157;50.982;18.132;2023-05-29T13:02:41;7.10;;;1.50;;
57317;SDS011;43157;50.982;18.132;2023-05-29T13:05:08;8.30;;;1.40;;
57317;SDS011;43157;50.982;18.132;2023-05-29T13:07:34;11.00;;;1.60;;
57317;SDS011;43157;50.982;18.132;2023-05-29T13:10:00;6.90;;;1.60;;
57317;SDS011;43157;50.982;18.132;2023-05-29T13:12:27;4.80;;;1.20;;
57317;SDS011;43157;50.982;18.132;2023-05-29T13:14:53;8.40;;;1.60;;
57317;SDS011;43157;50.982;18.132;2023-05-29T13:17:21;5.50;;;1.30;;
57317;SDS011;43157;50.982;18.132;2023-05-29T13:19:49;9.20;;;1.50;;
57317;SDS011;43157;50.982;18.132;2023-05-29T13:22:15;5.50;;;1.40;;
57317;SDS011;43157;50.982;18.132;2023-05-29T13:24:41;6.50;;;1.40;;
57317;SDS011;43157;50.982;18.132;2023-05-29T13:27:07;5.80;;;1.30;;
57317;SDS011;43157;50.982;18.132;2023-05-29T13:29:34;6.40;;;1.40;;
57317;SDS011;43157;50.982;18.132;2023-05-29T13:32:00;5.70;;;1.40;;
57317;SDS011;43157;50.982;18.132;2023-05-29T13:34:26;8.30;;;1.90;;
57317;SDS011;43157;50.982;18.132;2023-05-29T13:36:54;7.20;;;1.50;;
57317;SDS011;43157;50.982;18.132;2023-05-29T13:39:20;6.20;;;1.80;;
57317;SDS011;43157;50.982;18.132;2023-05-29T13:41:47;10.20;;;1.60;;
57317;SDS011;43157;50.982;18.132;2023-05-29T13:44:13;5.90;;;1.40;;
57317;SDS011;43157;50.982;18.132;2023-05-29T13:46:39;7.20;;;1.50;;
57317;SDS011;43157;50.982;18.132;2023-05-29T13:49:05;7.10;;;1.30;;
57317;SDS011;43157;50.982;18.132;2023-05-29T13:51:33;8.50;;;1.40;;
57317;SDS011;43157;50.982;18.132;2023-05-29T13:54:01;7.20;;;1.60;;
57317;SDS011;43157;50.982;18.132;2023-05-29T13:56:27;5.60;;;1.30;;
57317;SDS011;43157;50.982;18.132;2023-05-29T13:58:54;9.60;;;1.70;;
57317;SDS011;43157;50.982;18.132;2023-05-29T14:01:20;8.40;;;1.40;;
57317;SDS011;43157;50.982;18.132;2023-05-29T14:03:47;5.40;;;1.30;;
57317;SDS011;43157;50.982;18.132;2023-05-29T14:06:13;7.30;;;1.50;;
57317;SDS011;43157;50.982;18.132;2023-05-29T14:08:39;10.00;;;2.20;;
57317;SDS011;43157;50.982;18.132;2023-05-29T14:11:05;7.50;;;1.50;;
57317;SDS011;43157;50.982;18.132;2023-05-29T14:13:32;5.70;;;1.60;;
57317;SDS011;43157;50.982;18.132;2023-05-29T14:15:58;6.30;;;1.60;;
57317;SDS011;43157;50.982;18.132;2023-05-29T14:18:24;4.60;;;1.60;;
57317;SDS011;43157;50.982;18.132;2023-05-29T14:20:50;5.40;;;1.60;;
57317;SDS011;43157;50.982;18.132;2023-05-29T14:23:17;6.60;;;1.50;;
57317;SDS011;43157;50.982;18.132;2023-05-29T14:25:43;7.20;;;1.80;;
57317;SDS011;43157;50.982;18.132;2023-05-29T14:28:09;5.80;;;1.70;;
57317;SDS011;43157;50.982;18.132;2023-05-29T14:30:36;6.30;;;1.60;;
57317;SDS011;43157;50.982;18.132;2023-05-29T14:33:02;6.70;;;1.30;;
57317;SDS011;43157;50.982;18.132;2023-05-29T14:35:29;7.90;;;1.80;;
57317;SDS011;43157;50.982;18.132;2023-05-29T14:37:55;10.10;;;2.00;;
57317;SDS011;43157;50.982;18.132;2023-05-29T14:40:22;7.70;;;1.70;;
57317;SDS011;43157;50.982;18.132;2023-05-29T14:42:48;6.30;;;1.40;;
57317;SDS011;43157;50.982;18.132;2023-05-29T14:45:14;6.50;;;1.70;;
57317;SDS011;43157;50.982;18.132;2023-05-29T14:47:41;7.00;;;1.60;;
57317;SDS011;43157;50.982;18.132;2023-05-29T14:50:08;9.50;;;1.80;;
57317;SDS011;43157;50.982;18.132;2023-05-29T14:52:34;6.50;;;1.80;;
57317;SDS011;43157;50.982;18.132;2023-05-29T14:55:02;7.00;;;1.70;;
57317;SDS011;43157;50.982;18.132;2023-05-29T14:57:28;4.70;;;1.30;;
57317;SDS011;43157;50.982;18.132;2023-05-29T14:59:55;10.10;;;1.50;;
57317;SDS011;43157;50.982;18.132;2023-05-29T15:02:21;14.80;;;2.00;;
57317;SDS011;43157;50.982;18.132;2023-05-29T15:04:48;8.30;;;1.70;;
57317;SDS011;43157;50.982;18.132;2023-05-29T15:07:14;8.10;;;1.90;;